Time;durP1;ratioP1;P1;durP2;ratioP2;P2;SDS_P1;SDS_P2;PMS_P1;PMS_P2;Temp;Humidity;BMP_temperature;BMP_pressure;BME280_temperature;BME280_humidity;BME280_pressure;Samples;Min_cycle;Max_cycle;Signal;HPM_P1;HPM_P2
2022/04/05 00:01:11;;;;;;;18.30;11.35;;;8.30;57.40;;;;;;5032784;28;20030;-83
2022/04/05 00:06:40;;;;;;;17.15;11.25;;;8.90;56.10;;;;;;5030463;28;20095;-82
2022/04/05 00:09:06;;;;;;;18.38;10.77;;;9.20;55.30;;;;;;5014215;28;20392;-84
2022/04/05 00:11:31;;;;;;;17.65;12.32;;;8.90;56.10;;;;;;5014023;28;20050;-83
2022/04/05 00:13:57;;;;;;;18.42;11.20;;;8.90;55.80;;;;;;5014451;28;20596;-83
2022/04/05 00:16:23;;;;;;;16.00;11.05;;;8.80;56.40;;;;;;5024787;28;20534;-83
2022/04/05 00:18:48;;;;;;;15.02;9.70;;;9.10;56.50;;;;;;5033950;28;20029;-79
2022/04/05 00:21:14;;;;;;;15.50;9.95;;;9.20;55.50;;;;;;5032498;28;20120;-84
2022/04/05 00:23:39;;;;;;;15.85;9.98;;;9.20;55.70;;;;;;5049567;28;20156;-85
2022/04/05 00:26:05;;;;;;;14.90;9.50;;;9.60;55.20;;;;;;5022429;28;20488;-84
2022/04/05 00:28:31;;;;;;;15.20;10.45;;;9.60;55.20;;;;;;5012650;28;20104;-81
2022/04/05 00:30:57;;;;;;;15.65;9.95;;;9.60;55.50;;;;;;5013023;28;20033;-83
2022/04/05 00:33:22;;;;;;;14.80;10.23;;;9.90;54.90;;;;;;5015141;28;20124;-83
2022/04/05 00:35:48;;;;;;;15.85;11.00;;;10.20;54.40;;;;;;5032468;28;20021;-83
2022/04/05 00:38:14;;;;;;;14.15;10.10;;;10.40;53.60;;;;;;5032303;28;20036;-81
2022/04/05 00:40:39;;;;;;;14.48;9.40;;;10.40;53.30;;;;;;5033541;28;20045;-83
2022/04/05 00:43:05;;;;;;;14.57;9.40;;;10.50;53.60;;;;;;5027207;28;20058;-81
2022/04/05 00:45:33;;;;;;;12.70;9.02;;;10.70;53.40;;;;;;5018424;28;20072;-81
2022/04/05 00:47:59;;;;;;;15.35;9.48;;;10.20;54.20;;;;;;5037329;28;20028;-82
2022/04/05 00:50:27;;;;;;;13.95;8.75;;;10.20;54.90;;;;;;5035637;28;20141;-82
2022/04/05 00:52:53;;;;;;;14.35;8.20;;;10.20;54.50;;;;;;5033206;28;20503;-82
2022/04/05 00:55:22;;;;;;;11.55;7.70;;;10.20;54.20;;;;;;5032604;28;20044;-84
2022/04/05 00:57:50;;;;;;;14.07;8.90;;;10.50;53.90;;;;;;5036713;28;20025;-83
2022/04/05 01:00:16;;;;;;;13.23;8.88;;;10.60;53.80;;;;;;5035640;28;20026;-82
2022/04/05 01:02:44;;;;;;;11.50;7.90;;;10.80;53.30;;;;;;5035134;28;20349;-82
2022/04/05 01:05:10;;;;;;;12.23;8.10;;;11.20;51.60;;;;;;5036848;28;20030;-82
2022/04/05 01:07:39;;;;;;;11.15;7.78;;;11.60;50.70;;;;;;5034712;28;20068;-81
2022/04/05 01:10:06;;;;;;;11.30;7.50;;;11.90;50.10;;;;;;5035400;28;20025;-82
2022/04/05 01:12:33;;;;;;;10.82;7.63;;;12.20;49.80;;;;;;5036792;28;20037;-83
2022/04/05 01:14:59;;;;;;;11.02;7.18;;;12.40;49.80;;;;;;5035901;28;20022;-83
2022/04/05 01:17:26;;;;;;;12.02;7.25;;;12.40;49.10;;;;;;5036485;28;20033;-82
2022/04/05 01:19:52;;;;;;;11.50;7.55;;;12.30;49.00;;;;;;5036554;28;20050;-82
2022/04/05 01:22:17;;;;;;;10.60;7.15;;;12.40;49.20;;;;;;5035203;28;20138;-79
2022/04/05 01:24:43;;;;;;;10.80;7.50;;;12.40;49.30;;;;;;5016875;28;20101;-83
2022/04/05 01:27:16;;;;;;;10.25;7.15;;;12.30;49.30;;;;;;5016322;28;20101;-83
2022/04/05 01:29:42;;;;;;;10.80;7.05;;;11.90;49.80;;;;;;5015237;28;20026;-83
2022/04/05 01:32:08;;;;;;;11.10;6.82;;;12.00;50.00;;;;;;5015566;28;20033;-84
2022/04/05 01:34:35;;;;;;;9.95;6.97;;;12.20;49.60;;;;;;5019003;28;20376;-84
2022/04/05 01:37:10;;;;;;;11.63;7.65;;;12.40;49.80;;;;;;5033946;28;20061;-83
2022/04/05 01:39:38;;;;;;;10.25;7.28;;;12.50;49.20;;;;;;5034722;28;20519;-83
2022/04/05 01:42:06;;;;;;;11.90;7.65;;;12.60;48.90;;;;;;5033305;28;20381;-83
2022/04/05 01:44:34;;;;;;;11.73;7.63;;;12.60;49.30;;;;;;5035698;28;20358;-83
2022/04/05 01:47:09;;;;;;;11.13;7.43;;;12.90;48.60;;;;;;5034802;28;20554;-82
2022/04/05 01:49:35;;;;;;;12.07;7.32;;;12.90;48.80;;;;;;5036059;28;20045;-83
2022/04/05 01:52:01;;;;;;;10.93;7.30;;;13.10;48.70;;;;;;5028472;28;20072;-83
2022/04/05 01:54:27;;;;;;;11.25;7.80;;;12.70;48.60;;;;;;5015902;28;20154;-83
2022/04/05 01:56:52;;;;;;;12.20;7.70;;;12.80;49.00;;;;;;5015282;28;20026;-82
2022/04/05 01:59:24;;;;;;;11.88;7.07;;;12.60;49.00;;;;;;5016159;28;20407;-82
2022/04/05 02:01:50;;;;;;;11.50;8.02;;;12.40;49.40;;;;;;5020844;28;20060;-82
2022/04/05 02:04:16;;;;;;;11.18;7.10;;;12.50;50.00;;;;;;5034813;28;20033;-82
2022/04/05 02:06:43;;;;;;;11.88;7.70;;;12.70;49.40;;;;;;5035445;28;20048;-82
2022/04/05 02:09:13;;;;;;;11.48;7.03;;;12.70;49.10;;;;;;5034577;28;20026;-82
2022/04/05 02:11:40;;;;;;;9.95;6.95;;;12.80;49.20;;;;;;5016881;28;20034;-82
2022/04/05 02:14:06;;;;;;;12.32;7.57;;;12.90;48.80;;;;;;5015819;28;20054;-84
2022/04/05 02:16:32;;;;;;;10.52;7.38;;;13.00;48.60;;;;;;5015673;28;20061;-83
2022/04/05 02:18:58;;;;;;;11.38;8.02;;;13.10;48.40;;;;;;5014065;28;20116;-81
2022/04/05 02:21:24;;;;;;;11.57;7.70;;;12.80;48.40;;;;;;5029852;28;20104;-83
2022/04/05 02:23:50;;;;;;;10.10;7.63;;;12.90;48.50;;;;;;5034022;28;20132;-83
2022/04/05 02:26:16;;;;;;;10.15;7.45;;;12.70;48.80;;;;;;5050812;28;20037;-82
2022/04/05 02:28:42;;;;;;;11.35;7.72;;;12.60;49.20;;;;;;5029215;28;20108;-83
2022/04/05 02:31:08;;;;;;;11.88;7.95;;;12.50;49.50;;;;;;5014228;28;20449;-82
2022/04/05 02:33:34;;;;;;;10.02;7.18;;;12.40;49.50;;;;;;5015267;28;20026;-83
2022/04/05 02:36:00;;;;;;;10.18;7.68;;;12.30;49.40;;;;;;5014351;28;20203;-83
2022/04/05 02:38:26;;;;;;;12.38;7.65;;;12.40;49.60;;;;;;5018475;28;20389;-83
2022/04/05 02:40:52;;;;;;;10.77;8.00;;;12.40;50.30;;;;;;5016457;28;20373;-81
2022/04/05 02:43:18;;;;;;;11.60;7.70;;;12.60;49.40;;;;;;5014122;28;20029;-83
2022/04/05 02:45:43;;;;;;;12.15;7.70;;;12.70;49.30;;;;;;5013493;28;20041;-82
2022/04/05 02:48:09;;;;;;;10.75;7.35;;;12.40;49.80;;;;;;5013822;28;20029;-81
2022/04/05 02:50:36;;;;;;;11.27;7.90;;;12.70;49.30;;;;;;5014698;28;20028;-82
2022/04/05 02:53:01;;;;;;;13.02;7.97;;;13.00;48.70;;;;;;5033819;28;20041;-80
2022/04/05 02:55:27;;;;;;;12.85;7.55;;;12.90;48.90;;;;;;5046394;28;20026;-83
2022/04/05 02:57:53;;;;;;;12.85;8.15;;;12.40;49.80;;;;;;5034624;28;20033;-81
2022/04/05 03:00:19;;;;;;;10.50;7.57;;;12.20;50.20;;;;;;5033070;28;20156;-82
2022/04/05 03:02:46;;;;;;;10.27;7.32;;;12.40;49.70;;;;;;5033248;28;20021;-83
2022/04/05 03:05:13;;;;;;;11.30;7.68;;;12.40;49.90;;;;;;5033449;28;20057;-83
2022/04/05 03:07:40;;;;;;;11.90;7.63;;;12.40;50.10;;;;;;5033373;28;20063;-81
2022/04/05 03:10:09;;;;;;;11.25;7.78;;;12.50;49.70;;;;;;5034362;28;20105;-82
2022/04/05 03:12:35;;;;;;;11.27;7.75;;;12.60;49.50;;;;;;5014988;28;20022;-81
2022/04/05 03:15:06;;;;;;;11.38;7.93;;;12.60;49.50;;;;;;5014179;28;20076;-80
2022/04/05 03:17:33;;;;;;;13.05;8.05;;;12.30;50.00;;;;;;5014307;28;20026;-82
2022/04/05 03:20:03;;;;;;;14.27;7.90;;;12.50;50.00;;;;;;5013067;28;20555;-82
2022/04/05 03:22:29;;;;;;;;;;;12.80;49.50;;;;;;5014877;28;20029;-82
2022/04/05 03:24:55;;;;;;;14.13;7.88;;;12.60;49.90;;;;;;5013242;28;19909;-84
2022/04/05 03:27:21;;;;;;;11.77;8.07;;;12.90;49.70;;;;;;5012865;28;20070;-81
2022/04/05 03:29:47;;;;;;;12.52;8.15;;;12.90;49.00;;;;;;5013013;28;20108;-82
2022/04/05 03:32:12;;;;;;;10.98;7.68;;;12.70;49.50;;;;;;5031619;28;20021;-82
2022/04/05 03:34:39;;;;;;;12.30;7.90;;;13.00;49.60;;;;;;5049230;28;20033;-82
2022/04/05 03:37:05;;;;;;;12.55;8.38;;;12.80;49.20;;;;;;5033683;28;20021;-82
2022/04/05 03:39:31;;;;;;;12.55;7.82;;;12.50;50.00;;;;;;5027888;28;20022;-82
2022/04/05 03:41:57;;;;;;;12.20;7.90;;;12.50;50.10;;;;;;5034063;28;20033;-82
2022/04/05 03:44:24;;;;;;;12.73;8.10;;;12.80;50.10;;;;;;5032658;28;20026;-83
2022/04/05 03:46:52;;;;;;;12.63;8.00;;;12.70;50.40;;;;;;5032501;28;20060;-84
2022/04/05 03:49:18;;;;;;;11.43;7.78;;;12.60;50.30;;;;;;5013950;28;20058;-83
2022/04/05 03:51:44;;;;;;;10.88;7.63;;;12.30;51.10;;;;;;5013967;28;20057;-83
2022/04/05 03:54:10;;;;;;;11.40;7.95;;;12.40;51.10;;;;;;5014067;28;20029;-82
2022/04/05 03:56:35;;;;;;;13.75;8.48;;;11.90;51.80;;;;;;5013581;28;20049;-82
2022/04/05 03:59:01;;;;;;;13.82;8.30;;;11.80;52.40;;;;;;5013462;28;20029;-80
2022/04/05 04:01:27;;;;;;;11.18;7.60;;;11.60;52.40;;;;;;5012842;28;20121;-82
2022/04/05 04:03:52;;;;;;;11.60;7.95;;;11.40;53.50;;;;;;5013981;28;20030;-84
2022/04/05 04:06:18;;;;;;;12.27;7.97;;;11.40;53.50;;;;;;5017411;28;20087;-82
2022/04/05 04:08:44;;;;;;;11.90;8.15;;;11.60;53.30;;;;;;5033617;28;20103;-83
2022/04/05 04:11:09;;;;;;;11.80;7.90;;;12.00;52.60;;;;;;5028162;28;20021;-82
2022/04/05 04:13:35;;;;;;;11.98;8.07;;;11.90;52.70;;;;;;5038397;28;20021;-79
2022/04/05 04:16:01;;;;;;;11.38;7.88;;;11.70;53.10;;;;;;5021372;28;20037;-78
2022/04/05 04:18:27;;;;;;;10.88;7.15;;;11.70;53.30;;;;;;5022210;28;20464;-83
2022/04/05 04:20:53;;;;;;;10.90;7.78;;;11.70;53.40;;;;;;5035734;28;20357;-83
2022/04/05 04:23:19;;;;;;;10.82;7.45;;;11.70;53.70;;;;;;5032062;28;20027;-81
2022/04/05 04:25:45;;;;;;;12.95;7.70;;;11.70;54.40;;;;;;5033681;28;20028;-81
2022/04/05 04:28:11;;;;;;;11.73;7.90;;;12.10;53.10;;;;;;5027920;28;20029;-82
2022/04/05 04:30:38;;;;;;;10.43;7.60;;;12.30;53.00;;;;;;5017360;28;20052;-80
2022/04/05 04:33:05;;;;;;;11.25;8.65;;;12.40;52.80;;;;;;5031988;28;20427;-82
2022/04/05 04:35:31;;;;;;;12.68;8.15;;;12.30;52.60;;;;;;5030527;28;20026;-81
2022/04/05 04:37:58;;;;;;;12.63;8.48;;;12.30;52.80;;;;;;5025887;28;20018;-77
2022/04/05 04:40:25;;;;;;;17.25;10.90;;;11.90;53.50;;;;;;5024498;28;20040;-81
2022/04/05 04:42:51;;;;;;;12.10;7.65;;;12.20;53.40;;;;;;5027839;28;20017;-82
2022/04/05 04:45:16;;;;;;;14.70;8.98;;;12.40;52.80;;;;;;5030895;28;20812;-82
2022/04/05 04:47:42;;;;;;;18.13;10.27;;;12.30;53.00;;;;;;5042844;28;20078;-78
2022/04/05 04:50:11;;;;;;;12.20;8.02;;;12.00;53.20;;;;;;5040695;28;20533;-79
2022/04/05 04:52:37;;;;;;;12.15;7.88;;;12.10;53.70;;;;;;5036698;28;20033;-84
2022/04/05 04:55:04;;;;;;;11.05;7.63;;;12.00;53.40;;;;;;5022840;28;20037;-82
2022/04/05 04:57:30;;;;;;;11.77;7.50;;;11.90;53.50;;;;;;5029500;28;20053;-84
2022/04/05 04:59:56;;;;;;;13.02;7.70;;;12.20;53.40;;;;;;5036516;28;20064;-81
2022/04/05 05:02:22;;;;;;;33.42;19.25;;;12.70;52.80;;;;;;5035487;28;20030;-82
2022/04/05 05:04:49;;;;;;;14.05;8.15;;;12.60;52.70;;;;;;5035673;28;20132;-84
2022/04/05 05:07:15;;;;;;;12.63;8.00;;;12.80;52.50;;;;;;5030473;28;20037;-81
2022/04/05 05:09:41;;;;;;;11.98;7.70;;;13.00;51.80;;;;;;5034833;28;20037;-80
2022/04/05 05:12:10;;;;;;;12.30;7.43;;;13.20;51.70;;;;;;5035225;28;20124;-83
2022/04/05 05:14:36;;;;;;;11.40;7.50;;;12.80;52.20;;;;;;5035934;28;20022;-83
2022/04/05 05:17:02;;;;;;;12.40;8.20;;;12.80;52.40;;;;;;5027028;28;20037;-80
2022/04/05 05:19:27;;;;;;;10.75;7.57;;;12.80;51.90;;;;;;5035779;28;20030;-80
2022/04/05 05:21:53;;;;;;;12.93;9.02;;;12.80;52.00;;;;;;5035144;28;20544;-81
2022/04/05 05:24:19;;;;;;;14.43;9.40;;;13.10;52.20;;;;;;5031464;28;20526;-82
2022/04/05 05:26:44;;;;;;;15.45;9.07;;;13.30;51.20;;;;;;5034494;28;20091;-82
2022/04/05 05:29:11;;;;;;;12.20;9.25;;;13.30;50.90;;;;;;5034642;28;20025;-82
2022/04/05 05:31:36;;;;;;;11.30;8.38;;;13.40;50.80;;;;;;5052737;28;20463;-84
2022/04/05 05:34:02;;;;;;;14.02;8.32;;;13.50;50.70;;;;;;5034463;28;20037;-81
2022/04/05 05:36:28;;;;;;;13.48;8.80;;;13.60;50.50;;;;;;5035381;28;20029;-83
2022/04/05 05:38:53;;;;;;;13.48;9.32;;;13.70;50.30;;;;;;5036169;28;20017;-83
2022/04/05 05:41:19;;;;;;;12.25;9.00;;;13.40;50.10;;;;;;5035230;28;20117;-80
2022/04/05 05:43:45;;;;;;;11.98;8.52;;;13.50;50.70;;;;;;5035251;28;20032;-81
2022/04/05 05:46:14;;;;;;;12.25;8.70;;;13.50;50.30;;;;;;5034432;28;20400;-82
2022/04/05 05:48:40;;;;;;;16.23;9.50;;;13.90;50.40;;;;;;5034476;28;20056;-82
2022/04/05 05:51:06;;;;;;;11.15;8.25;;;14.10;49.60;;;;;;5035632;28;20056;-82
2022/04/05 05:53:33;;;;;;;13.43;8.45;;;14.20;49.10;;;;;;5035325;28;20037;-82
2022/04/05 05:55:58;;;;;;;14.50;8.55;;;14.40;48.90;;;;;;5035039;28;20075;-82
2022/04/05 05:58:24;;;;;;;17.33;11.18;;;14.10;49.30;;;;;;5034396;28;20021;-84
2022/04/05 06:00:51;;;;;;;12.75;8.77;;;14.20;49.60;;;;;;5035847;28;20029;-84
2022/04/05 06:03:17;;;;;;;13.18;7.88;;;14.40;49.70;;;;;;5034457;28;20044;-83
2022/04/05 06:05:44;;;;;;;14.43;10.70;;;14.20;49.50;;;;;;5035709;28;20026;-83
2022/04/05 06:08:10;;;;;;;10.52;8.05;;;13.70;49.40;;;;;;5034337;28;20519;-83
2022/04/05 06:10:36;;;;;;;10.43;7.63;;;13.80;50.20;;;;;;5033768;28;20031;-84
2022/04/05 06:13:02;;;;;;;12.35;7.97;;;14.00;50.30;;;;;;5034312;28;20116;-82
2022/04/05 06:15:29;;;;;;;11.00;8.30;;;14.10;49.80;;;;;;5034143;28;20384;-84
2022/04/05 06:17:57;;;;;;;12.13;8.45;;;14.50;49.20;;;;;;5033607;28;20431;-84
2022/04/05 06:20:24;;;;;;;11.75;8.30;;;14.90;49.00;;;;;;5034015;28;20029;-84
2022/04/05 06:23:01;;;;;;;12.07;7.85;;;15.10;47.80;;;;;;5033776;28;20079;-80
2022/04/05 06:25:32;;;;;;;11.57;7.72;;;14.90;48.40;;;;;;5033467;28;20376;-83
2022/04/05 06:28:01;;;;;;;11.27;7.63;;;15.10;47.90;;;;;;5035188;28;20030;-84
2022/04/05 06:30:27;;;;;;;11.25;7.68;;;14.90;48.50;;;;;;5035222;28;20040;-83
2022/04/05 06:33:13;;;;;;;11.82;7.07;;;14.70;48.80;;;;;;5033901;28;20032;-83
2022/04/05 06:35:41;;;;;;;9.75;7.05;;;14.70;48.60;;;;;;5034764;28;20412;-82
2022/04/05 06:38:07;;;;;;;11.57;7.03;;;15.00;48.10;;;;;;5035025;28;20018;-85
2022/04/05 06:40:33;;;;;;;10.80;7.18;;;15.20;48.30;;;;;;5034858;28;20060;-84
2022/04/05 06:42:59;;;;;;;10.25;7.32;;;15.30;47.60;;;;;;5033433;28;20049;-81
2022/04/05 06:45:25;;;;;;;9.70;7.10;;;15.20;47.70;;;;;;5033044;28;20496;-83
2022/04/05 06:47:51;;;;;;;11.85;7.88;;;14.80;48.30;;;;;;5033406;28;20037;-81
2022/04/05 06:50:20;;;;;;;10.07;6.88;;;15.00;48.30;;;;;;5034886;28;20096;-84
2022/04/05 06:52:47;;;;;;;9.32;7.13;;;14.70;48.00;;;;;;5033053;28;20033;-80
2022/04/05 06:55:12;;;;;;;10.88;7.20;;;14.60;48.10;;;;;;5034961;28;20022;-83
2022/04/05 06:57:39;;;;;;;9.23;6.95;;;14.80;49.00;;;;;;5033222;28;20550;-83
2022/04/05 07:00:07;;;;;;;10.18;7.45;;;15.00;48.60;;;;;;5032981;28;20026;-82
2022/04/05 07:02:33;;;;;;;10.90;7.10;;;15.20;48.50;;;;;;5032913;28;20056;-83
2022/04/05 07:04:59;;;;;;;10.15;7.38;;;15.50;47.60;;;;;;5033132;28;20117;-82
2022/04/05 07:07:25;;;;;;;8.85;6.53;;;15.20;47.50;;;;;;5032988;28;20124;-85
2022/04/05 07:09:50;;;;;;;9.80;7.35;;;15.30;47.90;;;;;;5033110;28;20112;-82
2022/04/05 07:12:16;;;;;;;9.98;6.35;;;15.00;47.90;;;;;;5032822;28;20033;-84
2022/04/05 07:14:42;;;;;;;9.18;6.75;;;14.90;48.10;;;;;;5034348;28;20376;-82
2022/04/05 07:17:08;;;;;;;8.57;6.38;;;15.30;48.00;;;;;;5032754;28;20021;-84
2022/04/05 07:19:33;;;;;;;11.02;6.80;;;15.90;47.30;;;;;;5032859;28;20026;-83
2022/04/05 07:22:00;;;;;;;9.93;6.70;;;16.60;46.90;;;;;;5032314;28;20393;-81
2022/04/05 07:24:26;;;;;;;10.35;6.68;;;17.10;45.20;;;;;;5032562;28;20025;-82
2022/04/05 07:26:52;;;;;;;11.73;6.68;;;17.50;45.00;;;;;;5033718;28;20420;-83
2022/04/05 07:29:18;;;;;;;9.00;6.68;;;18.10;44.00;;;;;;5032497;28;20526;-84
2022/04/05 07:31:44;;;;;;;10.05;7.18;;;17.70;43.60;;;;;;5032657;28;20495;-81
2022/04/05 07:34:09;;;;;;;8.80;6.22;;;17.80;44.30;;;;;;5033300;28;20025;-81
2022/04/05 07:36:35;;;;;;;9.75;7.18;;;17.50;44.60;;;;;;5033180;28;20026;-81
2022/04/05 07:39:01;;;;;;;9.10;6.07;;;17.40;45.20;;;;;;5032037;28;20075;-81
2022/04/05 07:41:26;;;;;;;11.82;6.07;;;17.30;44.40;;;;;;5032525;28;20017;-80
2022/04/05 07:43:53;;;;;;;10.73;6.18;;;16.90;44.60;;;;;;5033752;28;20423;-83
2022/04/05 07:46:19;;;;;;;9.02;5.80;;;16.60;45.60;;;;;;5033124;28;20045;-84
2022/04/05 07:48:47;;;;;;;9.70;6.57;;;16.70;45.40;;;;;;5032182;28;20079;-85
2022/04/05 07:51:13;;;;;;;9.27;6.28;;;17.00;44.40;;;;;;5032211;28;20104;-82
2022/04/05 07:53:39;;;;;;;8.90;6.32;;;17.00;43.80;;;;;;5031424;28;20052;-82
2022/04/05 07:56:05;;;;;;;9.95;6.65;;;17.00;44.60;;;;;;5033649;28;20064;-84
2022/04/05 07:58:31;;;;;;;10.50;6.07;;;17.40;44.00;;;;;;5033403;28;20025;-83
2022/04/05 08:00:56;;;;;;;8.85;6.10;;;17.50;43.90;;;;;;5033578;28;20380;-82
2022/04/05 08:03:23;;;;;;;8.82;5.97;;;17.20;44.20;;;;;;5031963;28;20500;-83
2022/04/05 08:05:49;;;;;;;16.20;10.20;;;17.50;43.90;;;;;;5033434;28;20025;-81
2022/04/05 08:08:15;;;;;;;15.65;8.07;;;17.80;43.70;;;;;;5032112;28;20459;-84
2022/04/05 08:10:41;;;;;;;30.70;16.30;;;17.80;43.90;;;;;;5033218;28;20022;-83
2022/04/05 08:13:07;;;;;;;14.60;8.18;;;18.00;43.60;;;;;;5032108;28;20432;-82
2022/04/05 08:15:36;;;;;;;12.45;8.48;;;18.40;43.30;;;;;;5032223;28;20071;-83
2022/04/05 08:18:08;;;;;;;10.60;8.05;;;18.60;42.30;;;;;;5032021;28;20022;-83
2022/04/05 08:20:36;;;;;;;11.52;7.50;;;18.90;42.40;;;;;;5033266;28;20025;-82
2022/04/05 08:23:06;;;;;;;8.82;6.15;;;19.00;42.20;;;;;;5031996;28;20543;-83
2022/04/05 08:25:35;;;;;;;11.32;8.77;;;18.50;42.10;;;;;;5032035;28;20196;-82
2022/04/05 08:28:01;;;;;;;10.90;7.28;;;18.60;42.00;;;;;;5032265;28;20120;-83
2022/04/05 08:30:29;;;;;;;8.82;5.68;;;18.70;42.20;;;;;;5032217;28;20460;-84
2022/04/05 08:33:02;;;;;;;9.27;6.00;;;18.70;42.10;;;;;;5032546;28;20038;-82
2022/04/05 08:35:33;;;;;;;10.13;5.93;;;17.90;42.60;;;;;;5032845;28;20108;-83
2022/04/05 08:37:59;;;;;;;7.20;5.57;;;17.80;43.30;;;;;;5031837;28;20029;-82
2022/04/05 08:40:31;;;;;;;12.75;6.82;;;17.90;42.80;;;;;;5032792;28;20076;-83
2022/04/05 08:42:57;;;;;;;14.07;7.65;;;17.60;43.30;;;;;;5031475;28;20039;-83
2022/04/05 08:45:26;;;;;;;9.70;6.72;;;17.70;43.50;;;;;;5031612;28;20052;-83
2022/04/05 08:47:55;;;;;;;11.20;6.35;;;18.00;42.90;;;;;;5033485;28;20392;-82
2022/04/05 08:50:23;;;;;;;8.60;6.15;;;18.20;42.90;;;;;;5033720;28;20029;-83
2022/04/05 08:53:07;;;;;;;9.15;5.75;;;18.70;41.80;;;;;;5033033;28;20038;-81
2022/04/05 08:55:35;;;;;;;7.78;5.25;;;18.50;43.80;;;;;;5032903;28;20040;-82
2022/04/05 08:58:06;;;;;;;8.30;5.60;;;19.40;42.30;;;;;;5032057;28;20396;-83
2022/04/05 09:00:32;;;;;;;8.50;6.00;;;20.00;40.50;;;;;;5031850;28;20171;-83
2022/04/05 09:03:00;;;;;;;7.63;5.57;;;20.20;40.20;;;;;;5033011;28;20021;-83
2022/04/05 09:05:27;;;;;;;9.32;5.85;;;19.80;40.40;;;;;;5032661;28;20029;-81
2022/04/05 09:08:15;;;;;;;7.55;5.80;;;19.70;41.80;;;;;;5035743;28;20104;-82
2022/04/05 09:10:49;;;;;;;10.70;5.97;;;19.80;41.00;;;;;;5035444;28;20486;-83
2022/04/05 09:13:19;;;;;;;200.55;173.32;;;20.00;40.20;;;;;;5035280;28;20036;-83
2022/04/05 09:16:10;;;;;;;;;;;;;;;;;;;;;
2022/04/05 09:18:44;;;;;;;52.83;48.30;;;21.40;40.30;;;;;;5035939;28;20025;-82
2022/04/05 09:21:11;;;;;;;22.08;19.95;;;22.00;39.00;;;;;;5035126;28;20029;-82
2022/04/05 09:23:41;;;;;;;18.60;16.58;;;21.70;39.10;;;;;;5035070;28;20037;-83
2022/04/05 09:29:19;;;;;;;11.02;7.75;;;23.00;39.60;;;;;;5031879;28;20036;-83
2022/04/05 09:31:48;;;;;;;12.93;11.30;;;23.90;39.00;;;;;;5027808;28;20112;-82
2022/04/05 09:34:28;;;;;;;8.50;6.60;;;23.20;37.60;;;;;;5029150;28;20148;-83
2022/04/05 09:36:59;;;;;;;9.43;7.20;;;23.40;37.40;;;;;;5036404;28;20036;-79
2022/04/05 09:39:29;;;;;;;9.05;7.00;;;23.40;38.10;;;;;;5035176;28;20018;-86
2022/04/05 09:42:08;;;;;;;9.32;7.03;;;22.70;37.70;;;;;;5034091;28;20483;-81
2022/04/05 09:44:42;;;;;;;9.60;7.03;;;21.60;38.70;;;;;;5016139;28;20026;-83
2022/04/05 09:47:16;;;;;;;8.95;6.55;;;21.70;39.60;;;;;;5016856;28;20401;-81
2022/04/05 09:49:46;;;;;;;8.65;5.93;;;22.10;39.10;;;;;;5014599;28;20030;-82
2022/04/05 09:52:29;;;;;;;9.45;6.53;;;22.00;38.80;;;;;;5016141;28;20030;-82
2022/04/05 09:54:55;;;;;;;9.93;5.70;;;21.90;38.50;;;;;;5020039;28;20032;-82
2022/04/05 09:57:30;;;;;;;8.70;5.93;;;21.80;39.30;;;;;;5034623;28;20079;-84
2022/04/05 10:00:11;;;;;;;9.88;7.40;;;22.20;39.70;;;;;;5034397;28;20469;-84
2022/04/05 10:02:57;;;;;;;11.10;7.50;;;22.30;38.90;;;;;;4678826;28;10000827;-81
2022/04/05 10:05:23;;;;;;;9.35;7.00;;;22.30;38.60;;;;;;5012724;28;20053;-83
2022/04/05 10:07:48;;;;;;;14.82;13.23;;;22.00;38.50;;;;;;5023456;28;20128;-81
2022/04/05 10:10:14;;;;;;;10.65;8.98;;;21.30;39.20;;;;;;5032886;28;20033;-79
2022/04/05 10:12:40;;;;;;;12.15;7.78;;;20.50;40.20;;;;;;5032812;28;20040;-81
2022/04/05 10:15:07;;;;;;;10.63;6.35;;;20.70;41.00;;;;;;5034004;28;20029;-84
2022/04/05 10:17:34;;;;;;;8.45;7.03;;;20.80;40.60;;;;;;5033684;28;20051;-81
2022/04/05 10:20:01;;;;;;;9.00;7.22;;;20.30;41.10;;;;;;5032118;28;20120;-82
2022/04/05 10:22:27;;;;;;;9.77;7.60;;;19.30;41.20;;;;;;5032652;28;20605;-81
2022/04/05 10:24:54;;;;;;;12.27;8.13;;;19.10;42.00;;;;;;5032371;28;20140;-81
2022/04/05 10:27:22;;;;;;;12.85;7.55;;;19.00;42.40;;;;;;5032069;28;20042;-81
2022/04/05 10:30:00;;;;;;;11.32;7.65;;;19.30;41.80;;;;;;5032138;28;20021;-80
2022/04/05 10:32:38;;;;;;;14.23;10.32;;;18.90;41.90;;;;;;5033163;28;20029;-83
2022/04/05 10:35:05;;;;;;;10.65;8.77;;;18.90;42.40;;;;;;5032515;28;20022;-78
2022/04/05 10:37:33;;;;;;;379.60;269.38;;;19.10;42.40;;;;;;5033686;28;20040;-80
2022/04/05 10:39:59;;;;;;;23.95;21.58;;;18.50;42.80;;;;;;5032235;28;20070;-82
2022/04/05 10:42:36;;;;;;;11.00;8.20;;;18.10;44.00;;;;;;5034476;28;20431;-83
2022/04/05 10:45:07;;;;;;;12.48;10.90;;;17.70;44.40;;;;;;5034747;28;20045;-81
2022/04/05 10:47:33;;;;;;;15.57;9.98;;;17.30;45.30;;;;;;5034306;28;20476;-84
2022/04/05 10:50:15;;;;;;;11.32;9.25;;;17.10;46.30;;;;;;5033560;28;20030;-83
2022/04/05 10:52:46;;;;;;;26.90;24.02;;;16.90;47.20;;;;;;5015845;28;20079;-83
2022/04/05 10:55:12;;;;;;;;;;;16.60;48.60;;;;;;5033089;28;20411;-82
2022/04/05 10:57:46;;;;;;;109.85;90.53;;;16.50;48.40;;;;;;5033836;28;20311;-82
2022/04/05 11:00:18;;;;;;;23.58;19.77;;;16.20;49.00;;;;;;5033374;28;20080;-83
2022/04/05 11:03:02;;;;;;;11.60;9.73;;;16.30;49.20;;;;;;5034313;28;20025;-82
2022/04/05 11:05:41;;;;;;;17.95;12.15;;;16.10;49.10;;;;;;5032988;28;20017;-82
2022/04/05 11:08:12;;;;;;;83.00;60.47;;;16.10;49.00;;;;;;5032803;28;20048;-84
2022/04/05 11:10:37;;;;;;;46.95;32.22;;;16.10;49.80;;;;;;5033817;28;20081;-83
2022/04/05 11:13:06;;;;;;;13.60;8.63;;;16.10;49.70;;;;;;5032685;28;20567;-80
2022/04/05 11:15:53;;;;;;;23.33;15.88;;;15.70;50.40;;;;;;5034106;28;20021;-83
2022/04/05 11:18:29;;;;;;;21.58;15.07;;;15.80;50.70;;;;;;5033758;28;20033;-82
2022/04/05 11:20:58;;;;;;;12.75;8.77;;;16.20;51.10;;;;;;5033641;28;20022;-82
2022/04/05 11:23:44;;;;;;;27.88;16.55;;;15.80;51.20;;;;;;5033019;28;20026;-83
2022/04/05 11:26:33;;;;;;;11.43;8.68;;;15.60;52.00;;;;;;5033617;28;20037;-83
2022/04/05 11:29:00;;;;;;;15.90;12.85;;;15.40;52.10;;;;;;5033058;28;20033;-83
2022/04/05 11:31:40;;;;;;;21.52;18.48;;;15.30;52.60;;;;;;5033758;28;20100;-83
2022/04/05 11:34:31;;;;;;;10.93;8.47;;;15.70;52.10;;;;;;5032749;28;20124;-83
2022/04/05 11:36:57;;;;;;;25.45;22.30;;;16.00;51.50;;;;;;5033405;28;20400;-83
2022/04/05 11:39:23;;;;;;;22.77;20.48;;;16.30;51.60;;;;;;5032157;28;20476;-82
2022/04/05 11:41:58;;;;;;;23.30;15.27;;;16.70;50.60;;;;;;5033827;28;20052;-83
2022/04/05 11:44:24;;;;;;;18.05;15.90;;;16.60;50.70;;;;;;5032217;28;20060;-84
2022/04/05 11:46:51;;;;;;;14.18;9.23;;;16.60;50.50;;;;;;5033560;28;20049;-82
2022/04/05 11:49:19;;;;;;;18.95;14.63;;;16.50;50.60;;;;;;5032840;28;20053;-83
2022/04/05 11:51:51;;;;;;;12.80;10.05;;;16.50;51.10;;;;;;5033787;28;20468;-82
2022/04/05 11:54:22;;;;;;;9.27;6.88;;;16.60;50.60;;;;;;5032381;28;20392;-84
2022/04/05 11:56:48;;;;;;;12.93;10.75;;;16.60;50.10;;;;;;5032680;28;20035;-83
2022/04/05 11:59:15;;;;;;;22.55;19.05;;;16.70;50.60;;;;;;5031950;28;20033;-81
2022/04/05 12:01:42;;;;;;;8.43;6.40;;;16.70;50.40;;;;;;5033399;28;20465;-83
2022/04/05 12:04:10;;;;;;;11.07;9.90;;;16.30;50.70;;;;;;5033577;28;20072;-81
2022/04/05 12:06:39;;;;;;;42.63;38.03;;;16.30;51.10;;;;;;5034122;28;20112;-84
2022/04/05 12:09:08;;;;;;;17.92;15.45;;;16.40;50.80;;;;;;5032256;28;20033;-83
2022/04/05 12:11:36;;;;;;;8.88;7.53;;;16.60;51.20;;;;;;5033078;28;20071;-83
2022/04/05 12:14:04;;;;;;;10.55;9.45;;;16.70;50.50;;;;;;5033272;28;20025;-83
2022/04/05 12:16:53;;;;;;;14.43;12.65;;;16.90;50.30;;;;;;5033486;28;20036;-90
2022/04/05 12:19:19;;;;;;;10.07;7.90;;;16.90;50.20;;;;;;5033615;28;20437;-83
2022/04/05 12:21:46;;;;;;;11.63;9.70;;;16.80;50.50;;;;;;5032101;28;20026;-83
2022/04/05 12:24:14;;;;;;;16.02;13.63;;;16.70;50.50;;;;;;5033097;28;20424;-82
2022/04/05 12:26:39;;;;;;;24.23;18.88;;;16.40;51.10;;;;;;5032216;28;20029;-82
2022/04/05 12:29:06;;;;;;;114.15;91.68;;;16.60;50.80;;;;;;5032158;28;20060;-84
2022/04/05 12:31:32;;;;;;;14.18;12.07;;;16.70;51.00;;;;;;5032122;28;20033;-83
2022/04/05 12:34:00;;;;;;;25.10;19.73;;;16.80;50.70;;;;;;5033639;28;20029;-83
2022/04/05 12:36:35;;;;;;;21.65;18.60;;;16.80;50.80;;;;;;5032026;28;20027;-83
2022/04/05 12:39:04;;;;;;;9.60;7.40;;;16.80;50.60;;;;;;5032225;28;20025;-83
2022/04/05 12:41:40;;;;;;;7.20;4.90;;;17.00;50.40;;;;;;4356095;28;10000641;-83
2022/04/05 12:44:12;;;;;;;6.75;4.47;;;17.20;50.10;;;;;;5016174;28;20037;-83
2022/04/05 12:46:44;;;;;;;8.38;5.55;;;17.20;50.20;;;;;;5048737;28;20069;-82
2022/04/05 12:49:43;;;;;;;5.85;4.40;;;17.30;50.10;;;;;;5048846;28;20045;-83